Time,TemperatureF,DewpointF,PressureIn,WindDirection,WindDirectionDegrees,WindSpeedMPH,WindSpeedGustMPH,Humidity,HourlyPrecipIn,Conditions,Clouds,dailyrainin,SoftwareType,DateUTC
2013-01-13 00:01:00,56.9,54.3,29.69,ESE,113,2.2,2.2,91,0.00,,,0.00,WUHU216HW,2013-01-13 05:01:00,
2013-01-13 00:02:00,56.9,54.3,29.69,ESE,113,0.4,2.2,91,0.00,,,0.00,WUHU216HW,2013-01-13 05:02:00,
2013-01-13 00:07:00,57.2,54.6,29.69,SE,135,0.2,2.2,91,0.00,,,0.00,WUHU216HW,2013-01-13 05:07:00,
2013-01-13 00:12:00,57.2,54.6,29.69,SE,135,1.3,1.3,91,0.00,,,0.00,WUHU216HW,2013-01-13 05:12:00,
2013-01-13 00:17:00,57.2,54.9,29.69,ESE,113,0.4,2.5,92,0.00,,,0.00,WUHU216HW,2013-01-13 05:17:00,
2013-01-13 00:22:00,57.2,54.9,29.69,SSE,158,1.1,2.5,92,0.00,,,0.00,WUHU216HW,2013-01-13 05:22:00,
2013-01-13 00:27:00,57.2,54.9,29.69,SSE,158,0.0,1.1,92,0.00,,,0.00,WUHU216HW,2013-01-13 05:27:00,
2013-01-13 00:32:00,57.4,55.1,29.69,SSW,203,0.2,0.4,92,0.00,,,0.00,WUHU216HW,2013-01-13 05:32:00,
2013-01-13 00:37:00,57.6,55.3,29.70,SW,225,0.9,1.3,92,0.00,,,0.00,WUHU216HW,2013-01-13 05:37:00,
2013-01-13 00:42:00,57.6,55.3,29.70,SSW,203,0.4,1.6,92,0.00,,,0.00,WUHU216HW,2013-01-13 05:42:00,
2013-01-13 00:47:00,57.6,55.3,29.69,SW,225,1.1,1.6,92,0.00,,,0.00,WUHU216HW,2013-01-13 05:47:00,
2013-01-13 00:52:00,57.6,55.3,29.69,WSW,248,0.4,1.3,92,0.00,,,0.00,WUHU216HW,2013-01-13 05:52:00,
2013-01-13 00:57:00,57.6,55.3,29.70,WSW,248,0.0,0.4,92,0.00,,,0.00,WUHU216HW,2013-01-13 05:57:00,
2013-01-13 01:02:00,57.6,55.3,29.70,WSW,248,0.0,0.4,92,0.00,,,0.00,WUHU216HW,2013-01-13 06:02:00,
2013-01-13 01:07:00,57.6,55.3,29.70,WSW,248,0.0,0.0,92,0.00,,,0.00,WUHU216HW,2013-01-13 06:07:00,
2013-01-13 01:12:00,57.6,55.3,29.69,SW,225,0.0,0.2,92,0.00,,,0.00,WUHU216HW,2013-01-13 06:12:00,
2013-01-13 01:17:00,57.8,55.4,29.69,SSW,203,0.0,0.4,92,0.00,,,0.00,WUHU216HW,2013-01-13 06:17:00,
2013-01-13 01:22:00,58.0,55.6,29.70,East,90,0.0,0.4,92,0.00,,,0.00,WUHU216HW,2013-01-13 06:22:00,
2013-01-13 01:27:00,58.0,55.6,29.70,ESE,113,0.9,0.9,92,0.00,,,0.00,WUHU216HW,2013-01-13 06:27:00,
2013-01-13 01:32:00,57.8,55.4,29.70,ESE,113,0.0,1.1,92,0.00,,,0.00,WUHU216HW,2013-01-13 06:32:00,
2013-01-13 01:37:00,57.8,55.4,29.70,ESE,113,0.0,1.1,92,0.00,,,0.00,WUHU216HW,2013-01-13 06:37:00,
2013-01-13 01:42:00,58.0,55.6,29.70,ESE,113,0.0,0.0,92,0.00,,,0.00,WUHU216HW,2013-01-13 06:42:00,
2013-01-13 01:47:00,58.0,55.6,29.70,East,90,0.0,0.4,92,0.00,,,0.00,WUHU216HW,2013-01-13 06:47:00,
2013-01-13 01:52:00,58.0,55.6,29.70,East,90,0.0,0.4,92,0.00,,,0.00,WUHU216HW,2013-01-13 06:52:00,
2013-01-13 01:57:00,58.0,55.6,29.70,East,90,0.0,0.4,92,0.00,,,0.00,WUHU216HW,2013-01-13 06:57:00,
2013-01-13 02:02:00,58.0,55.6,29.70,East,90,0.0,0.0,92,0.00,,,0.00,WUHU216HW,2013-01-13 07:02:00,
2013-01-13 02:07:00,57.8,55.4,29.70,East,90,0.0,0.0,92,0.00,,,0.00,WUHU216HW,2013-01-13 07:07:00,
2013-01-13 02:12:00,57.6,55.3,29.70,East,90,0.0,0.0,92,0.00,,,0.00,WUHU216HW,2013-01-13 07:12:00,
2013-01-13 02:17:00,57.4,55.1,29.70,East,90,0.0,0.0,92,0.00,,,0.00,WUHU216HW,2013-01-13 07:17:00,
2013-01-13 02:22:00,57.4,55.1,29.70,East,90,0.0,0.0,92,0.01,,,0.01,WUHU216HW,2013-01-13 07:22:00,
2013-01-13 02:27:00,57.2,54.9,29.70,East,90,0.7,0.9,92,0.01,,,0.01,WUHU216HW,2013-01-13 07:27:00,
2013-01-13 02:32:00,57.2,54.9,29.70,East,90,0.0,0.9,92,0.01,,,0.01,WUHU216HW,2013-01-13 07:32:00,
2013-01-13 02:37:00,57.2,54.9,29.70,East,90,0.0,0.7,92,0.01,,,0.01,WUHU216HW,2013-01-13 07:37:00,
2013-01-13 02:42:00,57.2,54.9,29.70,East,90,0.0,0.0,92,0.01,,,0.01,WUHU216HW,2013-01-13 07:42:00,
2013-01-13 02:47:00,57.2,54.9,29.70,East,90,0.0,0.0,92,0.01,,,0.01,WUHU216HW,2013-01-13 07:47:00,
2013-01-13 02:52:00,57.1,54.7,29.70,East,90,0.0,0.0,92,0.01,,,0.01,WUHU216HW,2013-01-13 07:52:00,
2013-01-13 02:57:00,57.1,54.7,29.70,East,90,0.0,0.0,92,0.01,,,0.01,WUHU216HW,2013-01-13 07:57:00,
2013-01-13 03:02:00,56.9,54.5,29.69,East,90,0.0,0.0,92,0.01,,,0.01,WUHU216HW,2013-01-13 08:02:00,
2013-01-13 03:07:00,56.9,54.5,29.69,East,90,0.0,0.0,92,0.01,,,0.01,WUHU216HW,2013-01-13 08:07:00,
2013-01-13 03:12:00,56.9,54.5,29.69,East,90,0.0,0.0,92,0.01,,,0.01,WUHU216HW,2013-01-13 08:12:00,
2013-01-13 03:17:00,56.9,54.5,29.69,East,90,0.0,0.0,92,0.01,,,0.01,WUHU216HW,2013-01-13 08:17:00,
2013-01-13 03:22:00,56.9,54.5,29.69,East,90,0.0,0.0,92,0.00,,,0.01,WUHU216HW,2013-01-13 08:22:00,
2013-01-13 03:27:00,56.9,54.5,29.69,East,90,0.4,0.4,92,0.00,,,0.01,WUHU216HW,2013-01-13 08:27:00,
2013-01-13 03:32:00,56.5,54.2,29.68,ESE,113,0.4,1.1,92,0.00,,,0.01,WUHU216HW,2013-01-13 08:32:00,
2013-01-13 03:37:00,56.3,54.0,29.68,ESE,113,0.9,1.1,92,0.00,,,0.01,WUHU216HW,2013-01-13 08:37:00,
2013-01-13 03:42:00,56.2,53.8,29.68,ESE,113,0.4,0.9,92,0.00,,,0.01,WUHU216HW,2013-01-13 08:42:00,
2013-01-13 03:47:00,55.8,53.5,29.68,ESE,113,0.4,0.7,92,0.00,,,0.01,WUHU216HW,2013-01-13 08:47:00,
2013-01-13 03:52:00,55.8,53.5,29.68,ESE,113,1.1,1.1,92,0.00,,,0.01,WUHU216HW,2013-01-13 08:52:00,
2013-01-13 03:57:00,55.6,53.3,29.67,ESE,113,0.0,1.1,92,0.00,,,0.01,WUHU216HW,2013-01-13 08:57:00,
2013-01-13 04:02:00,55.6,53.3,29.67,ESE,113,1.1,1.1,92,0.00,,,0.01,WUHU216HW,2013-01-13 09:02:00,
2013-01-13 04:07:00,55.4,53.1,29.67,ESE,113,0.4,1.1,92,0.00,,,0.01,WUHU216HW,2013-01-13 09:07:00,
2013-01-13 04:12:00,55.4,53.1,29.67,East,90,0.4,1.3,92,0.00,,,0.01,WUHU216HW,2013-01-13 09:12:00,
2013-01-13 04:17:00,55.4,53.1,29.67,East,90,0.9,1.3,92,0.00,,,0.01,WUHU216HW,2013-01-13 09:17:00,
2013-01-13 04:22:00,55.6,53.3,29.67,ESE,113,0.4,1.1,92,0.00,,,0.01,WUHU216HW,2013-01-13 09:22:00,
2013-01-13 04:27:00,55.8,53.5,29.67,ESE,113,0.9,1.1,92,0.00,,,0.01,WUHU216HW,2013-01-13 09:27:00,
2013-01-13 04:32:00,56.0,53.6,29.67,ENE,68,0.4,0.9,92,0.00,,,0.01,WUHU216HW,2013-01-13 09:32:00,
2013-01-13 04:37:00,56.3,54.0,29.66,SE,135,1.1,1.1,92,0.00,,,0.01,WUHU216HW,2013-01-13 09:37:00,
2013-01-13 04:42:00,56.5,54.6,29.66,East,90,2.0,2.0,93,0.00,,,0.01,WUHU216HW,2013-01-13 09:42:00,
2013-01-13 04:47:00,56.9,54.9,29.66,East,90,0.9,2.0,93,0.00,,,0.01,WUHU216HW,2013-01-13 09:47:00,
2013-01-13 04:52:00,57.1,55.1,29.66,SE,135,1.1,2.0,93,0.00,,,0.01,WUHU216HW,2013-01-13 09:52:00,
2013-01-13 04:57:00,57.2,55.3,29.66,SE,135,1.1,2.0,93,0.00,,,0.01,WUHU216HW,2013-01-13 09:57:00,
2013-01-13 05:02:00,57.4,55.5,29.66,ESE,113,0.0,1.8,93,0.00,,,0.01,WUHU216HW,2013-01-13 10:02:00,
2013-01-13 05:07:00,57.6,55.6,29.66,East,90,0.7,1.3,93,0.00,,,0.01,WUHU216HW,2013-01-13 10:07:00,
2013-01-13 05:12:00,57.8,55.8,29.66,SSE,158,0.7,1.3,93,0.00,,,0.01,WUHU216HW,2013-01-13 10:12:00,
2013-01-13 05:17:00,58.0,56.0,29.66,SSE,158,0.2,2.5,93,0.00,,,0.01,WUHU216HW,2013-01-13 10:17:00,
2013-01-13 05:22:00,58.1,56.2,29.66,SW,225,0.9,4.7,93,0.00,,,0.01,WUHU216HW,2013-01-13 10:22:00,
2013-01-13 05:27:00,58.3,56.4,29.66,SE,135,1.1,4.7,93,0.00,,,0.01,WUHU216HW,2013-01-13 10:27:00,
2013-01-13 05:32:00,58.3,56.0,29.66,SSE,158,0.4,1.8,92,0.00,,,0.01,WUHU216HW,2013-01-13 10:32:00,
2013-01-13 05:37:00,58.3,56.0,29.67,South,180,1.6,1.8,92,0.00,,,0.01,WUHU216HW,2013-01-13 10:37:00,
2013-01-13 05:42:00,58.3,56.0,29.67,South,180,1.1,2.7,92,0.00,,,0.01,WUHU216HW,2013-01-13 10:42:00,
2013-01-13 05:47:00,58.5,56.2,29.67,SW,225,2.5,4.7,92,0.00,,,0.01,WUHU216HW,2013-01-13 10:47:00,
2013-01-13 05:52:00,58.7,56.3,29.67,SW,225,2.0,4.7,92,0.00,,,0.01,WUHU216HW,2013-01-13 10:52:00,
2013-01-13 05:57:00,58.7,56.3,29.67,SSE,158,0.4,2.5,92,0.00,,,0.01,WUHU216HW,2013-01-13 10:57:00,
2013-01-13 06:02:00,58.7,56.3,29.67,SW,225,2.2,2.5,92,0.00,,,0.01,WUHU216HW,2013-01-13 11:02:00,
2013-01-13 06:07:00,58.7,56.3,29.67,SW,225,0.9,3.6,92,0.00,,,0.01,WUHU216HW,2013-01-13 11:07:00,
2013-01-13 06:12:00,58.7,56.3,29.67,SE,135,1.1,3.6,92,0.00,,,0.01,WUHU216HW,2013-01-13 11:12:00,
2013-01-13 06:17:00,58.5,56.2,29.67,SE,135,0.4,2.9,92,0.00,,,0.01,WUHU216HW,2013-01-13 11:17:00,
2013-01-13 06:22:00,58.3,56.0,29.68,SSE,158,1.3,2.9,92,0.00,,,0.01,WUHU216HW,2013-01-13 11:22:00,
2013-01-13 06:27:00,58.5,56.2,29.68,SE,135,2.2,2.5,92,0.00,,,0.01,WUHU216HW,2013-01-13 11:27:00,
2013-01-13 06:32:00,58.3,56.0,29.68,WSW,248,1.8,4.3,92,0.00,,,0.01,WUHU216HW,2013-01-13 11:32:00,
2013-01-13 06:37:00,58.3,55.7,29.68,SW,225,2.7,4.3,91,0.00,,,0.01,WUHU216HW,2013-01-13 11:37:00,
2013-01-13 06:42:00,58.3,55.7,29.69,South,180,1.1,2.7,91,0.00,,,0.01,WUHU216HW,2013-01-13 11:42:00,
2013-01-13 06:47:00,58.3,55.7,29.69,SW,225,1.1,2.7,91,0.00,,,0.01,WUHU216HW,2013-01-13 11:47:00,
2013-01-13 06:52:00,58.3,55.7,29.69,South,180,2.0,2.0,91,0.00,,,0.01,WUHU216HW,2013-01-13 11:52:00,
2013-01-13 06:57:00,58.1,55.5,29.69,SSE,158,3.4,3.4,91,0.00,,,0.01,WUHU216HW,2013-01-13 11:57:00,
2013-01-13 07:02:00,58.1,55.5,29.69,ENE,68,1.1,3.4,91,0.00,,,0.01,WUHU216HW,2013-01-13 12:02:00,
2013-01-13 07:07:00,58.0,55.4,29.69,SE,135,2.0,2.9,91,0.00,,,0.01,WUHU216HW,2013-01-13 12:07:00,
2013-01-13 07:12:00,58.0,55.4,29.69,SW,225,1.8,2.9,91,0.00,,,0.01,WUHU216HW,2013-01-13 12:12:00,
2013-01-13 07:17:00,58.0,55.4,29.69,SSE,158,0.4,3.4,91,0.00,,,0.01,WUHU216HW,2013-01-13 12:17:00,
2013-01-13 07:22:00,58.0,55.4,29.69,SSE,158,1.8,3.4,91,0.00,,,0.01,WUHU216HW,2013-01-13 12:22:00,
2013-01-13 07:27:00,58.0,55.4,29.69,West,270,0.9,2.5,91,0.00,,,0.01,WUHU216HW,2013-01-13 12:27:00,
2013-01-13 07:32:00,57.8,55.2,29.69,NE,45,0.9,2.7,91,0.00,,,0.01,WUHU216HW,2013-01-13 12:32:00,
2013-01-13 07:37:00,57.8,55.4,29.69,WSW,248,1.8,2.7,92,0.00,,,0.01,WUHU216HW,2013-01-13 12:37:00,
2013-01-13 07:42:00,58.0,55.6,29.69,SSE,158,2.5,3.4,92,0.00,,,0.01,WUHU216HW,2013-01-13 12:42:00,
2013-01-13 07:47:00,57.8,55.4,29.69,SSE,158,1.6,3.4,92,0.00,,,0.01,WUHU216HW,2013-01-13 12:47:00,
2013-01-13 07:52:00,58.0,55.6,29.69,SW,225,1.3,2.2,92,0.00,,,0.01,WUHU216HW,2013-01-13 12:52:00,
2013-01-13 07:57:00,58.0,55.6,29.69,SSW,203,1.1,4.0,92,0.00,,,0.01,WUHU216HW,2013-01-13 12:57:00,
2013-01-13 08:02:00,58.1,55.8,29.69,East,90,0.4,4.0,92,0.00,,,0.01,WUHU216HW,2013-01-13 13:02:00,
2013-01-13 08:07:00,58.3,56.0,29.69,SE,135,0.4,2.7,92,0.00,,,0.01,WUHU216HW,2013-01-13 13:07:00,
2013-01-13 08:12:00,58.5,56.2,29.69,WSW,248,0.4,2.7,92,0.00,,,0.01,WUHU216HW,2013-01-13 13:12:00,
2013-01-13 08:17:00,58.7,56.3,29.70,WSW,248,0.7,2.2,92,0.00,,,0.01,WUHU216HW,2013-01-13 13:17:00,
2013-01-13 08:22:00,58.7,56.1,29.69,East,90,0.7,1.1,91,0.00,,,0.01,WUHU216HW,2013-01-13 13:22:00,
2013-01-13 08:27:00,58.7,56.1,29.69,SE,135,1.8,1.8,91,0.00,,,0.01,WUHU216HW,2013-01-13 13:27:00,
2013-01-13 08:32:00,58.7,56.1,29.70,ESE,113,1.1,2.5,91,0.00,,,0.01,WUHU216HW,2013-01-13 13:32:00,
2013-01-13 08:37:00,58.7,56.1,29.70,SW,225,1.1,3.8,91,0.00,,,0.01,WUHU216HW,2013-01-13 13:37:00,
2013-01-13 08:42:00,58.9,56.3,29.71,WSW,248,2.5,3.8,91,0.00,,,0.01,WUHU216HW,2013-01-13 13:42:00,
2013-01-13 08:47:00,58.7,56.1,29.71,SSE,158,0.9,3.4,91,0.00,,,0.01,WUHU216HW,2013-01-13 13:47:00,
2013-01-13 08:52:00,58.9,56.3,29.71,South,180,0.0,2.5,91,0.00,,,0.01,WUHU216HW,2013-01-13 13:52:00,
2013-01-13 08:57:00,58.9,56.3,29.71,South,180,0.7,2.2,91,0.00,,,0.01,WUHU216HW,2013-01-13 13:57:00,
2013-01-13 09:02:00,59.0,56.4,29.72,WSW,248,0.4,2.2,91,0.00,,,0.01,WUHU216HW,2013-01-13 14:02:00,
2013-01-13 09:07:00,58.9,56.3,29.72,SSW,203,2.7,2.7,91,0.00,,,0.01,WUHU216HW,2013-01-13 14:07:00,
2013-01-13 09:12:00,59.0,56.7,29.72,WSW,248,0.4,2.7,92,0.00,,,0.01,WUHU216HW,2013-01-13 14:12:00,
2013-01-13 09:17:00,59.4,57.1,29.72,SSW,203,0.9,2.0,92,0.00,,,0.01,WUHU216HW,2013-01-13 14:17:00,
2013-01-13 09:22:00,60.1,57.8,29.72,SW,225,1.1,2.7,92,0.00,,,0.01,WUHU216HW,2013-01-13 14:22:00,
2013-01-13 09:27:00,60.7,58.3,29.72,WSW,248,0.7,2.7,92,0.00,,,0.01,WUHU216HW,2013-01-13 14:27:00,
2013-01-13 09:32:00,61.6,59.2,29.72,SW,225,0.9,1.6,92,0.00,,,0.01,WUHU216HW,2013-01-13 14:32:00,
2013-01-13 09:37:00,62.3,59.4,29.72,East,90,3.8,3.8,90,0.00,,,0.01,WUHU216HW,2013-01-13 14:37:00,
2013-01-13 09:42:00,63.0,60.1,29.72,SE,135,3.4,4.5,90,0.00,,,0.01,WUHU216HW,2013-01-13 14:42:00,
2013-01-13 09:47:00,63.4,60.1,29.72,SE,135,4.7,4.7,89,0.00,,,0.01,WUHU216HW,2013-01-13 14:47:00,
2013-01-13 09:52:00,64.1,60.2,29.71,SSW,203,1.6,6.9,87,0.00,,,0.01,WUHU216HW,2013-01-13 14:52:00,
2013-01-13 09:57:00,64.4,60.6,29.71,SSW,203,4.3,6.9,87,0.00,,,0.01,WUHU216HW,2013-01-13 14:57:00,
2013-01-13 10:02:00,64.6,60.4,29.71,SSE,158,2.5,4.3,86,0.00,,,0.01,WUHU216HW,2013-01-13 15:02:00,
2013-01-13 10:07:00,65.0,60.4,29.72,West,270,2.0,6.9,85,0.00,,,0.01,WUHU216HW,2013-01-13 15:07:00,
2013-01-13 10:12:00,65.2,60.8,29.72,West,270,1.1,6.9,86,0.00,,,0.01,WUHU216HW,2013-01-13 15:12:00,
2013-01-13 10:17:00,66.1,61.8,29.72,SW,225,2.7,6.3,86,0.00,,,0.01,WUHU216HW,2013-01-13 15:17:00,
2013-01-13 10:22:00,67.0,62.7,29.72,SSW,203,0.9,6.3,86,0.00,,,0.01,WUHU216HW,2013-01-13 15:22:00,
2013-01-13 10:27:00,67.1,62.1,29.72,WSW,248,2.5,5.6,84,0.00,,,0.01,WUHU216HW,2013-01-13 15:27:00,
2013-01-13 10:32:00,67.0,61.9,29.71,SSW,203,1.1,5.6,84,0.00,,,0.01,WUHU216HW,2013-01-13 15:32:00,
2013-01-13 10:37:00,66.8,61.5,29.71,South,180,3.1,3.8,83,0.00,,,0.01,WUHU216HW,2013-01-13 15:37:00,
2013-01-13 10:42:00,66.6,61.6,29.71,ESE,113,3.4,5.4,84,0.00,,,0.01,WUHU216HW,2013-01-13 15:42:00,
2013-01-13 10:47:00,66.4,61.4,29.71,SE,135,2.5,5.4,84,0.00,,,0.01,WUHU216HW,2013-01-13 15:47:00,
2013-01-13 10:52:00,66.8,61.7,29.71,WSW,248,3.8,3.8,84,0.00,,,0.01,WUHU216HW,2013-01-13 15:52:00,
2013-01-13 10:57:00,67.7,62.0,29.71,SSW,203,2.2,5.8,82,0.00,,,0.01,WUHU216HW,2013-01-13 15:57:00,
2013-01-13 11:02:00,68.4,62.4,29.70,SSE,158,5.4,5.8,81,0.00,,,0.01,WUHU216HW,2013-01-13 16:02:00,
2013-01-13 11:07:00,68.8,62.4,29.70,East,90,2.5,5.4,80,0.00,,,0.01,WUHU216HW,2013-01-13 16:07:00,
2013-01-13 11:12:00,68.9,62.6,29.70,SSE,158,5.8,5.8,80,0.00,,,0.01,WUHU216HW,2013-01-13 16:12:00,
2013-01-13 11:17:00,69.3,62.9,29.70,SW,225,2.9,5.8,80,0.00,,,0.01,WUHU216HW,2013-01-13 16:17:00,
2013-01-13 11:22:00,69.7,63.2,29.69,SSW,203,6.0,6.0,80,0.00,,,0.01,WUHU216HW,2013-01-13 16:22:00,
2013-01-13 11:27:00,70.6,63.7,29.69,WSW,248,2.0,6.0,79,0.00,,,0.01,WUHU216HW,2013-01-13 16:27:00,
2013-01-13 11:32:00,70.7,63.1,29.69,SSW,203,5.4,6.0,77,0.00,,,0.01,WUHU216HW,2013-01-13 16:32:00,
2013-01-13 11:38:00,70.6,62.6,29.69,SSW,203,2.5,5.8,76,0.00,,,0.01,WUHU216HW,2013-01-13 16:38:00,
2013-01-13 11:43:00,70.2,62.2,29.68,SW,225,4.0,6.3,76,0.00,,,0.01,WUHU216HW,2013-01-13 16:43:00,
2013-01-13 11:48:00,70.4,62.4,29.68,SSW,203,2.5,6.9,76,0.00,,,0.01,WUHU216HW,2013-01-13 16:48:00,
2013-01-13 11:53:00,70.9,62.9,29.68,WSW,248,3.4,6.9,76,0.00,,,0.01,WUHU216HW,2013-01-13 16:53:00,
2013-01-13 11:58:00,71.6,63.6,29.67,West,270,1.1,5.6,76,0.00,,,0.01,WUHU216HW,2013-01-13 16:58:00,
2013-01-13 12:03:00,71.8,63.1,29.67,SW,225,1.3,5.6,74,0.00,,,0.01,WUHU216HW,2013-01-13 17:03:00,
2013-01-13 12:08:00,71.6,62.9,29.67,South,180,2.2,4.3,74,0.00,,,0.01,WUHU216HW,2013-01-13 17:08:00,
2013-01-13 12:13:00,71.5,62.7,29.67,West,270,7.4,7.4,74,0.00,,,0.01,WUHU216HW,2013-01-13 17:13:00,
2013-01-13 12:18:00,70.9,62.2,29.66,SW,225,6.5,7.4,74,0.00,,,0.01,WUHU216HW,2013-01-13 17:18:00,
2013-01-13 12:22:00,70.4,61.7,29.66,SSW,203,4.3,6.5,74,0.00,,,0.01,WUHU216HW,2013-01-13 17:22:00,
2013-01-13 12:28:00,70.2,61.5,29.66,WSW,248,2.2,6.3,74,0.00,,,0.01,WUHU216HW,2013-01-13 17:28:00,
2013-01-13 12:33:00,70.4,62.0,29.66,WSW,248,2.9,4.9,75,0.00,,,0.01,WUHU216HW,2013-01-13 17:33:00,
2013-01-13 12:38:00,70.7,62.4,29.66,SSE,158,6.0,6.0,75,0.00,,,0.01,WUHU216HW,2013-01-13 17:38:00,
2013-01-13 12:43:00,70.6,61.8,29.66,SSW,203,2.9,6.0,74,0.00,,,0.01,WUHU216HW,2013-01-13 17:43:00,
2013-01-13 12:48:00,70.4,61.7,29.66,ESE,113,4.5,5.1,74,0.00,,,0.01,WUHU216HW,2013-01-13 17:48:00,
2013-01-13 12:53:00,70.9,62.2,29.66,SW,225,4.7,5.1,74,0.00,,,0.01,WUHU216HW,2013-01-13 17:53:00,
2013-01-13 12:58:00,71.3,62.6,29.66,WSW,248,3.6,6.3,74,0.00,,,0.01,WUHU216HW,2013-01-13 17:58:00,
2013-01-13 13:03:00,71.6,62.6,29.66,WSW,248,3.1,6.5,73,0.00,,,0.01,WUHU216HW,2013-01-13 18:03:00,
2013-01-13 13:08:00,71.6,61.7,29.66,WSW,248,3.4,8.1,71,0.00,,,0.01,WUHU216HW,2013-01-13 18:08:00,
2013-01-13 13:13:00,71.6,61.7,29.65,South,180,5.4,8.1,71,0.00,,,0.01,WUHU216HW,2013-01-13 18:13:00,
2013-01-13 13:17:00,71.8,61.9,29.65,SSW,203,2.9,7.6,71,0.00,,,0.01,WUHU216HW,2013-01-13 18:17:00,
2013-01-13 13:22:00,72.0,62.5,29.65,WSW,248,2.2,7.6,72,0.00,,,0.01,WUHU216HW,2013-01-13 18:22:00,
2013-01-13 13:27:00,72.0,61.7,29.65,SSW,203,2.9,5.8,70,0.00,,,0.01,WUHU216HW,2013-01-13 18:27:00,
2013-01-13 13:32:00,71.6,61.7,29.64,SE,135,2.7,5.8,71,0.00,,,0.01,WUHU216HW,2013-01-13 18:32:00,
2013-01-13 13:37:00,71.5,61.9,29.65,SSW,203,2.5,5.1,72,0.00,,,0.01,WUHU216HW,2013-01-13 18:37:00,
2013-01-13 13:43:00,71.3,61.7,29.64,SSW,203,1.6,5.1,72,0.00,,,0.01,WUHU216HW,2013-01-13 18:43:00,
2013-01-13 13:47:00,71.3,61.7,29.64,West,270,3.4,4.3,72,0.00,,,0.01,WUHU216HW,2013-01-13 18:47:00,
2013-01-13 13:52:00,71.1,61.2,29.64,WSW,248,2.5,4.3,71,0.00,,,0.01,WUHU216HW,2013-01-13 18:52:00,
2013-01-13 13:57:00,71.1,61.2,29.64,NNW,338,2.0,3.8,71,0.00,,,0.01,WUHU216HW,2013-01-13 18:57:00,
2013-01-13 14:02:00,71.3,61.7,29.64,SW,225,5.8,5.8,72,0.00,,,0.01,WUHU216HW,2013-01-13 19:02:00,
2013-01-13 14:07:00,71.6,61.4,29.64,SW,225,5.6,5.8,70,0.00,,,0.01,WUHU216HW,2013-01-13 19:07:00,
2013-01-13 14:12:00,71.3,61.0,29.64,WSW,248,4.0,5.6,70,0.00,,,0.01,WUHU216HW,2013-01-13 19:12:00,
2013-01-13 14:17:00,71.1,60.8,29.64,SW,225,5.6,5.6,70,0.00,,,0.01,WUHU216HW,2013-01-13 19:17:00,
2013-01-13 14:22:00,70.9,60.7,29.64,SE,135,2.5,5.6,70,0.00,,,0.01,WUHU216HW,2013-01-13 19:22:00,
2013-01-13 14:28:00,70.9,61.0,29.64,SSE,158,1.3,6.9,71,0.00,,,0.01,WUHU216HW,2013-01-13 19:28:00,
2013-01-13 14:33:00,71.1,61.2,29.64,SSE,158,2.9,7.2,71,0.00,,,0.01,WUHU216HW,2013-01-13 19:33:00,
2013-01-13 14:38:00,71.3,60.6,29.64,WSW,248,2.0,7.4,69,0.00,,,0.01,WUHU216HW,2013-01-13 19:38:00,
2013-01-13 14:43:00,71.3,60.6,29.64,SSE,158,4.0,7.4,69,0.00,,,0.01,WUHU216HW,2013-01-13 19:43:00,
2013-01-13 14:48:00,71.1,60.4,29.65,SSW,203,8.5,8.5,69,0.00,,,0.01,WUHU216HW,2013-01-13 19:48:00,
2013-01-13 14:53:00,70.9,60.2,29.65,WSW,248,6.3,8.5,69,0.00,,,0.01,WUHU216HW,2013-01-13 19:53:00,
2013-01-13 14:58:00,71.3,60.6,29.65,WSW,248,5.1,6.9,69,0.00,,,0.01,WUHU216HW,2013-01-13 19:58:00,
2013-01-13 15:03:00,71.3,60.1,29.64,SW,225,5.4,6.0,68,0.00,,,0.01,WUHU216HW,2013-01-13 20:03:00,
2013-01-13 15:08:00,71.3,60.1,29.64,NW,315,2.5,6.9,68,0.00,,,0.01,WUHU216HW,2013-01-13 20:08:00,
2013-01-13 15:13:00,71.5,60.3,29.64,ESE,113,2.9,6.9,68,0.00,,,0.01,WUHU216HW,2013-01-13 20:13:00,
2013-01-13 15:18:00,71.6,60.5,29.65,SSW,203,4.7,4.9,68,0.00,,,0.01,WUHU216HW,2013-01-13 20:18:00,
2013-01-13 15:23:00,71.6,60.5,29.65,SW,225,4.5,5.6,68,0.00,,,0.01,WUHU216HW,2013-01-13 20:23:00,
2013-01-13 15:28:00,71.5,60.3,29.65,West,270,2.5,6.5,68,0.00,,,0.01,WUHU216HW,2013-01-13 20:28:00,
2013-01-13 15:33:00,71.1,60.0,29.65,WSW,248,1.1,6.5,68,0.00,,,0.01,WUHU216HW,2013-01-13 20:33:00,
2013-01-13 15:38:00,70.9,60.2,29.65,SSW,203,4.5,4.7,69,0.00,,,0.01,WUHU216HW,2013-01-13 20:38:00,
2013-01-13 15:43:00,70.7,60.0,29.65,South,180,6.9,6.9,69,0.00,,,0.01,WUHU216HW,2013-01-13 20:43:00,
2013-01-13 15:48:00,70.6,59.5,29.66,SW,225,6.3,6.9,68,0.00,,,0.01,WUHU216HW,2013-01-13 20:48:00,
2013-01-13 15:53:00,70.6,59.9,29.66,SW,225,4.0,6.3,69,0.00,,,0.01,WUHU216HW,2013-01-13 20:53:00,
2013-01-13 15:58:00,70.7,60.0,29.65,SSE,158,2.0,4.3,69,0.00,,,0.01,WUHU216HW,2013-01-13 20:58:00,
2013-01-13 16:03:00,70.7,60.0,29.65,NW,315,5.1,5.1,69,0.00,,,0.01,WUHU216HW,2013-01-13 21:03:00,
2013-01-13 16:08:00,70.6,59.9,29.66,WSW,248,3.6,5.4,69,0.00,,,0.01,WUHU216HW,2013-01-13 21:08:00,
2013-01-13 16:13:00,70.4,59.7,29.66,WSW,248,2.7,5.4,69,0.00,,,0.01,WUHU216HW,2013-01-13 21:13:00,
2013-01-13 16:18:00,70.4,59.7,29.66,East,90,4.7,5.4,69,0.00,,,0.01,WUHU216HW,2013-01-13 21:18:00,
2013-01-13 16:23:00,70.2,59.9,29.66,SW,225,1.8,4.7,70,0.00,,,0.01,WUHU216HW,2013-01-13 21:23:00,
2013-01-13 16:28:00,70.2,59.9,29.66,SSW,203,3.6,4.3,70,0.00,,,0.01,WUHU216HW,2013-01-13 21:28:00,
2013-01-13 16:33:00,70.2,59.9,29.66,SW,225,4.0,4.0,70,0.00,,,0.01,WUHU216HW,2013-01-13 21:33:00,
2013-01-13 16:38:00,70.0,59.8,29.66,WSW,248,1.8,5.4,70,0.00,,,0.01,WUHU216HW,2013-01-13 21:38:00,
2013-01-13 16:43:00,70.0,59.8,29.66,South,180,2.5,5.4,70,0.00,,,0.01,WUHU216HW,2013-01-13 21:43:00,
2013-01-13 16:48:00,69.8,59.6,29.66,SW,225,0.9,4.0,70,0.00,,,0.01,WUHU216HW,2013-01-13 21:48:00,
2013-01-13 16:53:00,69.7,59.4,29.66,South,180,2.5,2.5,70,0.00,,,0.01,WUHU216HW,2013-01-13 21:53:00,
2013-01-13 16:58:00,69.5,59.2,29.66,ESE,113,1.1,2.5,70,0.00,,,0.01,WUHU216HW,2013-01-13 21:58:00,
2013-01-13 17:03:00,69.3,59.1,29.66,SW,225,3.1,3.1,70,0.00,,,0.01,WUHU216HW,2013-01-13 22:03:00,
2013-01-13 17:08:00,69.1,59.0,29.66,SSW,203,2.0,3.1,70,0.00,,,0.01,WUHU216HW,2013-01-13 22:08:00,
2013-01-13 17:13:00,68.8,58.6,29.66,SSE,158,2.5,4.7,70,0.00,,,0.01,WUHU216HW,2013-01-13 22:13:00,
2013-01-13 17:18:00,68.8,58.6,29.66,WSW,248,2.5,4.7,70,0.00,,,0.01,WUHU216HW,2013-01-13 22:18:00,
2013-01-13 17:23:00,68.6,58.9,29.66,SSW,203,0.0,3.8,71,0.00,,,0.01,WUHU216HW,2013-01-13 22:23:00,
2013-01-13 17:28:00,68.6,58.9,29.66,SSW,203,0.9,2.9,71,0.00,,,0.01,WUHU216HW,2013-01-13 22:28:00,
2013-01-13 17:33:00,68.4,58.7,29.66,SSW,203,1.1,3.1,71,0.00,,,0.01,WUHU216HW,2013-01-13 22:33:00,
2013-01-13 17:38:00,68.0,58.7,29.66,SSE,158,1.8,3.1,72,0.00,,,0.01,WUHU216HW,2013-01-13 22:38:00,
2013-01-13 17:43:00,67.9,58.5,29.66,South,180,1.1,3.1,72,0.00,,,0.01,WUHU216HW,2013-01-13 22:43:00,
2013-01-13 17:48:00,67.7,58.3,29.66,South,180,0.0,3.4,72,0.00,,,0.01,WUHU216HW,2013-01-13 22:48:00,
2013-01-13 17:53:00,67.7,58.8,29.66,SSE,158,0.2,3.4,73,0.00,,,0.01,WUHU216HW,2013-01-13 22:53:00,
2013-01-13 17:58:00,67.5,58.6,29.66,SW,225,0.4,1.1,73,0.00,,,0.01,WUHU216HW,2013-01-13 22:58:00,
2013-01-13 18:03:00,67.3,58.4,29.67,SSW,203,1.6,1.6,73,0.00,,,0.01,WUHU216HW,2013-01-13 23:03:00,
2013-01-13 18:08:00,67.3,58.4,29.66,SW,225,0.0,1.6,73,0.00,,,0.01,WUHU216HW,2013-01-13 23:08:00,
2013-01-13 18:13:00,67.1,58.6,29.66,SSE,158,0.2,1.1,74,0.00,,,0.01,WUHU216HW,2013-01-13 23:13:00,
2013-01-13 18:18:00,67.0,58.4,29.67,SSW,203,0.4,0.4,74,0.00,,,0.01,WUHU216HW,2013-01-13 23:18:00,
2013-01-13 18:23:00,66.8,58.2,29.67,South,180,0.0,2.0,74,0.00,,,0.01,WUHU216HW,2013-01-13 23:23:00,
2013-01-13 18:28:00,66.6,58.1,29.67,SSE,158,0.2,2.0,74,0.00,,,0.01,WUHU216HW,2013-01-13 23:28:00,
2013-01-13 18:33:00,66.6,58.1,29.67,South,180,0.2,1.8,74,0.00,,,0.01,WUHU216HW,2013-01-13 23:33:00,
2013-01-13 18:38:00,66.4,57.9,29.67,SSE,158,0.0,1.8,74,0.00,,,0.01,WUHU216HW,2013-01-13 23:38:00,
2013-01-13 18:43:00,66.2,58.1,29.67,SSE,158,0.0,0.0,75,0.00,,,0.01,WUHU216HW,2013-01-13 23:43:00,
2013-01-13 18:47:00,66.2,58.1,29.66,SE,135,0.4,0.4,75,0.00,,,0.01,WUHU216HW,2013-01-13 23:47:00,
2013-01-13 18:53:00,66.1,57.9,29.66,SE,135,0.0,0.4,75,0.00,,,0.01,WUHU216HW,2013-01-13 23:53:00,
2013-01-13 18:58:00,65.9,57.7,29.66,SE,135,0.0,0.4,75,0.00,,,0.01,WUHU216HW,2013-01-13 23:58:00,
2013-01-13 19:03:00,65.7,57.9,29.66,SE,135,0.0,0.0,76,0.00,,,0.01,WUHU216HW,2013-01-14 00:03:00,
2013-01-13 19:08:00,65.5,57.8,29.66,South,180,0.4,0.4,76,0.00,,,0.01,WUHU216HW,2013-01-14 00:08:00,
2013-01-13 19:13:00,65.3,57.6,29.66,ENE,68,1.1,1.1,76,0.00,,,0.01,WUHU216HW,2013-01-14 00:13:00,
2013-01-13 19:18:00,65.2,57.8,29.66,ENE,68,0.0,1.1,77,0.00,,,0.01,WUHU216HW,2013-01-14 00:18:00,
2013-01-13 19:23:00,65.2,57.8,29.66,ENE,68,0.0,0.0,77,0.00,,,0.01,WUHU216HW,2013-01-14 00:23:00,
2013-01-13 19:27:00,65.0,57.6,29.66,ENE,68,0.0,0.0,77,0.00,,,0.01,WUHU216HW,2013-01-14 00:27:00,
2013-01-13 19:32:00,65.0,57.6,29.66,SE,135,0.0,1.1,77,0.00,,,0.01,WUHU216HW,2013-01-14 00:32:00,
2013-01-13 19:37:00,64.8,57.4,29.65,ESE,113,0.4,1.6,77,0.00,,,0.01,WUHU216HW,2013-01-14 00:37:00,
2013-01-13 19:42:00,64.8,57.4,29.65,SE,135,0.4,1.6,77,0.00,,,0.01,WUHU216HW,2013-01-14 00:42:00,
2013-01-13 19:47:00,64.4,57.1,29.65,ESE,113,0.0,1.1,77,0.00,,,0.01,WUHU216HW,2013-01-14 00:47:00,
2013-01-13 19:52:00,64.4,57.4,29.65,SSE,158,0.0,1.3,78,0.00,,,0.01,WUHU216HW,2013-01-14 00:52:00,
2013-01-13 19:57:00,64.1,57.1,29.65,East,90,0.4,1.6,78,0.00,,,0.01,WUHU216HW,2013-01-14 00:57:00,
2013-01-13 20:02:00,64.1,57.1,29.65,SSE,158,0.4,1.8,78,0.00,,,0.01,WUHU216HW,2013-01-14 01:02:00,
2013-01-13 20:07:00,64.1,57.4,29.64,East,90,0.7,1.8,79,0.00,,,0.01,WUHU216HW,2013-01-14 01:07:00,
2013-01-13 20:12:00,64.1,57.4,29.65,SSE,158,0.7,1.1,79,0.00,,,0.01,WUHU216HW,2013-01-14 01:12:00,
2013-01-13 20:17:00,64.1,57.4,29.65,SW,225,1.1,1.3,79,0.00,,,0.01,WUHU216HW,2013-01-14 01:17:00,
2013-01-13 20:22:00,64.1,57.4,29.65,SSW,203,0.4,1.8,79,0.00,,,0.01,WUHU216HW,2013-01-14 01:22:00,
2013-01-13 20:27:00,64.1,57.4,29.65,SSE,158,0.4,1.8,79,0.00,,,0.01,WUHU216HW,2013-01-14 01:27:00,
2013-01-13 20:32:00,64.1,57.4,29.65,SE,135,0.4,1.8,79,0.00,,,0.01,WUHU216HW,2013-01-14 01:32:00,
2013-01-13 20:37:00,64.1,57.4,29.65,SSE,158,0.0,1.8,79,0.00,,,0.01,WUHU216HW,2013-01-14 01:37:00,
2013-01-13 20:42:00,63.9,57.2,29.65,ESE,113,0.2,0.9,79,0.00,,,0.01,WUHU216HW,2013-01-14 01:42:00,
2013-01-13 20:48:00,63.9,57.6,29.65,WSW,248,0.0,0.4,80,0.00,,,0.01,WUHU216HW,2013-01-14 01:48:00,
2013-01-13 20:52:00,63.9,57.6,29.65,WSW,248,0.0,1.8,80,0.00,,,0.01,WUHU216HW,2013-01-14 01:52:00,
2013-01-13 20:57:00,63.7,57.4,29.65,WSW,248,0.0,1.8,80,0.00,,,0.01,WUHU216HW,2013-01-14 01:57:00,
2013-01-13 21:03:00,63.7,57.4,29.65,WSW,248,0.0,0.2,80,0.00,,,0.01,WUHU216HW,2013-01-14 02:03:00,
2013-01-13 21:08:00,63.7,57.4,29.65,SW,225,0.0,0.7,80,0.00,,,0.01,WUHU216HW,2013-01-14 02:08:00,
2013-01-13 21:13:00,63.5,56.9,29.65,ESE,113,0.2,0.7,79,0.00,,,0.01,WUHU216HW,2013-01-14 02:13:00,
2013-01-13 21:18:00,63.4,56.7,29.65,ESE,113,0.0,0.4,79,0.00,,,0.01,WUHU216HW,2013-01-14 02:18:00,
2013-01-13 21:23:00,63.2,56.5,29.65,SSW,203,0.2,0.9,79,0.00,,,0.01,WUHU216HW,2013-01-14 02:23:00,
2013-01-13 21:28:00,63.0,56.3,29.65,SW,225,0.9,0.9,79,0.00,,,0.01,WUHU216HW,2013-01-14 02:28:00,
2013-01-13 21:33:00,63.0,56.7,29.65,SE,135,1.8,1.8,80,0.00,,,0.01,WUHU216HW,2013-01-14 02:33:00,
2013-01-13 21:38:00,63.0,56.7,29.65,ESE,113,0.0,1.8,80,0.00,,,0.01,WUHU216HW,2013-01-14 02:38:00,
2013-01-13 21:42:00,63.0,56.7,29.65,South,180,2.5,2.5,80,0.00,,,0.01,WUHU216HW,2013-01-14 02:42:00,
2013-01-13 21:48:00,63.0,57.1,29.65,SSW,203,0.7,2.7,81,0.00,,,0.01,WUHU216HW,2013-01-14 02:48:00,
2013-01-13 21:53:00,63.0,57.1,29.65,South,180,1.8,2.7,81,0.00,,,0.01,WUHU216HW,2013-01-14 02:53:00,
2013-01-13 21:58:00,63.0,57.1,29.65,SSW,203,1.6,2.0,81,0.00,,,0.01,WUHU216HW,2013-01-14 02:58:00,
2013-01-13 22:03:00,63.2,57.3,29.65,SSE,158,0.7,2.0,81,0.00,,,0.01,WUHU216HW,2013-01-14 03:03:00,
2013-01-13 22:08:00,63.2,57.3,29.65,SE,135,0.7,1.8,81,0.00,,,0.01,WUHU216HW,2013-01-14 03:08:00,
2013-01-13 22:13:00,63.4,57.8,29.65,SSW,203,1.8,2.0,82,0.00,,,0.01,WUHU216HW,2013-01-14 03:13:00,
2013-01-13 22:18:00,63.4,57.4,29.65,SSE,158,1.8,2.0,81,0.00,,,0.01,WUHU216HW,2013-01-14 03:18:00,
2013-01-13 22:23:00,63.4,57.4,29.65,SE,135,0.9,1.8,81,0.00,,,0.01,WUHU216HW,2013-01-14 03:23:00,
2013-01-13 22:28:00,63.4,57.4,29.66,SW,225,0.4,2.2,81,0.00,,,0.01,WUHU216HW,2013-01-14 03:28:00,
2013-01-13 22:33:00,63.2,57.3,29.66,SSE,158,0.2,2.2,81,0.00,,,0.01,WUHU216HW,2013-01-14 03:33:00,
2013-01-13 22:37:00,63.2,57.6,29.66,South,180,0.4,1.6,82,0.00,,,0.01,WUHU216HW,2013-01-14 03:37:00,
2013-01-13 22:43:00,63.2,57.6,29.66,West,270,0.4,1.1,82,0.00,,,0.01,WUHU216HW,2013-01-14 03:43:00,
2013-01-13 22:48:00,63.0,57.1,29.66,WSW,248,0.4,1.3,81,0.00,,,0.01,WUHU216HW,2013-01-14 03:48:00,
2013-01-13 22:53:00,63.0,57.1,29.66,SW,225,0.0,1.3,81,0.00,,,0.01,WUHU216HW,2013-01-14 03:53:00,
2013-01-13 22:58:00,62.8,57.3,29.66,SE,135,0.2,1.1,82,0.00,,,0.01,WUHU216HW,2013-01-14 03:58:00,
2013-01-13 23:03:00,62.8,57.3,29.66,SW,225,0.4,1.8,82,0.00,,,0.01,WUHU216HW,2013-01-14 04:03:00,
2013-01-13 23:08:00,62.8,57.5,29.66,West,270,1.6,2.5,83,0.00,,,0.01,WUHU216HW,2013-01-14 04:08:00,
2013-01-13 23:13:00,63.0,57.7,29.67,WNW,293,2.0,2.5,83,0.00,,,0.01,WUHU216HW,2013-01-14 04:13:00,
2013-01-13 23:18:00,63.0,57.7,29.67,ESE,113,0.2,3.1,83,0.00,,,0.01,WUHU216HW,2013-01-14 04:18:00,
2013-01-13 23:23:00,63.0,57.7,29.67,South,180,1.8,3.1,83,0.00,,,0.01,WUHU216HW,2013-01-14 04:23:00,
2013-01-13 23:28:00,63.2,57.9,29.66,SSW,203,1.1,2.7,83,0.00,,,0.01,WUHU216HW,2013-01-14 04:28:00,
2013-01-13 23:33:00,63.4,58.1,29.67,South,180,0.9,1.6,83,0.00,,,0.01,WUHU216HW,2013-01-14 04:33:00,
2013-01-13 23:38:00,63.4,57.8,29.67,WSW,248,3.6,3.6,82,0.00,,,0.01,WUHU216HW,2013-01-14 04:38:00,
2013-01-13 23:43:00,63.4,57.8,29.67,SSW,203,1.3,4.5,82,0.00,,,0.01,WUHU216HW,2013-01-14 04:43:00,
2013-01-13 23:48:00,63.5,58.0,29.67,SW,225,1.1,4.5,82,0.00,,,0.01,WUHU216HW,2013-01-14 04:48:00,
2013-01-13 23:53:00,63.5,58.0,29.68,SW,225,1.3,5.4,82,0.00,,,0.01,WUHU216HW,2013-01-14 04:53:00,
2013-01-13 23:58:00,63.5,58.0,29.68,SSW,203,1.3,5.4,82,0.00,,,0.01,WUHU216HW,2013-01-14 04:58:00,